createdAt,value
2018-02-12T00:00:06.559Z,1.62
2018-02-12T00:01:06.084Z,1.62
2018-02-12T00:02:06.246Z,1.56
2018-02-12T00:03:05.697Z,1.56
2018-02-12T00:04:06.784Z,1.56
2018-02-12T00:05:06.332Z,1.56
2018-02-12T00:06:05.758Z,1.50
2018-02-12T00:07:06.361Z,1.50
2018-02-12T00:08:06.238Z,1.50
2018-02-12T00:09:06.180Z,1.50
2018-02-12T00:10:06.482Z,1.44
2018-02-12T00:11:06.158Z,1.44
2018-02-12T00:12:05.607Z,1.44
2018-02-12T00:13:05.680Z,1.38
2018-02-12T00:14:05.996Z,1.38
2018-02-12T00:15:05.838Z,1.38
2018-02-12T00:16:06.162Z,1.31
2018-02-12T00:17:06.028Z,1.31
2018-02-12T00:18:06.680Z,1.31
2018-02-12T00:19:06.395Z,1.31
2018-02-12T00:20:05.754Z,1.25
2018-02-12T00:21:05.814Z,1.25
2018-02-12T00:22:06.387Z,1.25
2018-02-12T00:23:05.759Z,1.25
2018-02-12T00:24:05.751Z,1.19
2018-02-12T00:25:06.342Z,1.19
2018-02-12T00:26:06.012Z,1.19
2018-02-12T00:27:05.837Z,1.19
2018-02-12T00:28:05.853Z,1.12
2018-02-12T00:29:06.000Z,1.12
2018-02-12T00:30:05.832Z,1.12
2018-02-12T00:31:05.668Z,1.12
2018-02-12T00:32:06.336Z,1.12
2018-02-12T00:33:05.598Z,1.12
2018-02-12T00:34:05.931Z,1.12
2018-02-12T00:35:06.656Z,1.12
2018-02-12T00:36:05.920Z,1.12
2018-02-12T00:37:05.785Z,1.12
2018-02-12T00:38:05.823Z,1.12
2018-02-12T00:39:06.253Z,1.12
2018-02-12T00:40:05.946Z,1.12
2018-02-12T00:41:06.433Z,1.12
2018-02-12T00:42:05.850Z,1.12
2018-02-12T00:43:05.513Z,1.12
2018-02-12T00:44:05.943Z,1.06
2018-02-12T00:45:06.243Z,1.06
2018-02-12T00:46:06.721Z,1.06
2018-02-12T00:47:07.030Z,1.06
2018-02-12T00:48:05.997Z,1.06
2018-02-12T00:49:06.151Z,1.06
2018-02-12T00:50:07.151Z,1.06
2018-02-12T00:51:06.014Z,1.06
2018-02-12T00:52:06.484Z,1.06
2018-02-12T00:53:06.474Z,1.06
2018-02-12T00:54:05.982Z,1.00
2018-02-12T00:55:05.697Z,1.00
2018-02-12T00:56:05.933Z,1.06
2018-02-12T00:57:05.930Z,1.06
2018-02-12T00:58:06.402Z,1.00
2018-02-12T00:59:11.084Z,1.00
2018-02-12T01:00:05.522Z,1.00
2018-02-12T01:01:06.298Z,1.00
2018-02-12T01:02:06.010Z,1.00
2018-02-12T01:03:06.651Z,1.00
2018-02-12T01:04:05.757Z,1.00
2018-02-12T01:05:06.596Z,1.06
2018-02-12T01:06:05.655Z,1.00
2018-02-12T01:07:06.414Z,1.00
2018-02-12T01:08:05.607Z,1.00
2018-02-12T01:09:05.767Z,1.00
2018-02-12T01:10:06.316Z,1.00
2018-02-12T01:11:05.930Z,1.00
2018-02-12T01:12:10.544Z,1.00
2018-02-12T01:13:05.939Z,1.00
2018-02-12T01:14:05.846Z,1.00
2018-02-12T01:15:06.400Z,1.00
2018-02-12T01:16:06.264Z,1.00
2018-02-12T01:17:05.689Z,1.00
2018-02-12T01:18:06.332Z,1.00
2018-02-12T01:19:05.750Z,1.00
2018-02-12T01:20:06.331Z,1.00
2018-02-12T01:21:05.764Z,1.00
2018-02-12T01:22:06.014Z,1.00
2018-02-12T01:23:05.751Z,1.00
2018-02-12T01:24:06.048Z,1.00
2018-02-12T01:25:06.478Z,1.00
2018-02-12T01:26:05.810Z,1.00
2018-02-12T01:27:06.238Z,1.00
2018-02-12T01:28:11.242Z,1.00
2018-02-12T01:29:06.398Z,1.00
2018-02-12T01:30:05.770Z,1.06
2018-02-12T01:31:06.535Z,1.06
2018-02-12T01:32:06.256Z,1.06
2018-02-12T01:33:06.399Z,1.06
2018-02-12T01:34:05.719Z,1.06
2018-02-12T01:35:05.920Z,1.12
2018-02-12T01:36:06.075Z,1.12
2018-02-12T01:37:06.425Z,1.12
2018-02-12T01:38:05.855Z,1.12
2018-02-12T01:39:05.944Z,1.12
2018-02-12T01:40:06.079Z,1.12
2018-02-12T01:41:05.844Z,1.12
2018-02-12T01:42:05.912Z,1.19
2018-02-12T01:43:05.513Z,1.19
2018-02-12T01:44:11.403Z,1.19
2018-02-12T01:45:06.088Z,1.25
2018-02-12T01:46:06.394Z,1.25
2018-02-12T01:47:05.465Z,1.25
2018-02-12T01:48:05.913Z,1.25
2018-02-12T01:49:05.568Z,1.25
2018-02-12T01:50:05.682Z,1.31
2018-02-12T01:51:06.801Z,1.31
2018-02-12T01:52:06.156Z,1.31
2018-02-12T01:53:06.255Z,1.31
2018-02-12T01:54:05.686Z,1.31
2018-02-12T01:55:06.261Z,1.38
2018-02-12T01:56:05.613Z,1.38
2018-02-12T01:57:05.938Z,1.38
2018-02-12T01:58:05.945Z,1.38
2018-02-12T01:59:06.688Z,1.38
2018-02-12T02:00:06.172Z,1.38
2018-02-12T02:01:06.170Z,1.44
2018-02-12T02:02:05.732Z,1.44
2018-02-12T02:03:05.509Z,1.44
2018-02-12T02:04:11.100Z,1.44
2018-02-12T02:05:05.759Z,1.44
2018-02-12T02:06:06.401Z,1.44
2018-02-12T02:07:05.596Z,1.44
2018-02-12T02:08:06.598Z,1.50
2018-02-12T02:09:06.234Z,1.50
2018-02-12T02:10:06.242Z,1.50
2018-02-12T02:11:05.926Z,1.50
2018-02-12T02:12:10.912Z,1.50
2018-02-12T02:13:05.512Z,1.50
2018-02-12T02:14:06.154Z,1.50
2018-02-12T02:15:05.686Z,1.56
2018-02-12T02:16:11.417Z,1.56
2018-02-12T02:17:06.001Z,1.56
2018-02-12T02:18:06.079Z,1.56
2018-02-12T02:19:06.040Z,1.56
2018-02-12T02:20:05.922Z,1.56
2018-02-12T02:21:05.907Z,1.56
2018-02-12T02:22:06.605Z,1.56
2018-02-12T02:23:06.241Z,1.56
2018-02-12T02:24:06.329Z,1.62
2018-02-12T02:25:05.665Z,1.62
2018-02-12T02:26:06.338Z,1.62
2018-02-12T02:27:05.682Z,1.62
2018-02-12T02:28:06.145Z,1.62
2018-02-12T02:29:06.081Z,1.62
2018-02-12T02:30:06.341Z,1.62
2018-02-12T02:31:06.017Z,1.62
2018-02-12T02:32:05.761Z,1.62
2018-02-12T02:33:05.758Z,1.62
2018-02-12T02:34:05.854Z,1.62
2018-02-12T02:35:05.685Z,1.62
2018-02-12T02:36:06.417Z,1.62
2018-02-12T02:37:05.922Z,1.62
2018-02-12T02:38:06.024Z,1.62
2018-02-12T02:39:06.483Z,1.62
2018-02-12T02:40:05.973Z,1.56
2018-02-12T02:41:06.313Z,1.56
2018-02-12T02:42:05.516Z,1.56
2018-02-12T02:43:05.845Z,1.56
2018-02-12T02:44:06.492Z,1.56
2018-02-12T02:45:06.566Z,1.56
2018-02-12T02:46:05.944Z,1.50
2018-02-12T02:47:06.081Z,1.50
2018-02-12T02:48:06.084Z,1.50
2018-02-12T02:49:06.316Z,1.50
2018-02-12T02:50:06.245Z,1.50
2018-02-12T02:51:06.244Z,1.50
2018-02-12T02:52:11.247Z,1.50
2018-02-12T02:53:05.916Z,1.50
2018-02-12T02:54:06.574Z,1.50
2018-02-12T02:55:06.007Z,1.50
2018-02-12T02:56:06.320Z,1.50
2018-02-12T02:57:10.773Z,1.44
2018-02-12T02:58:05.530Z,1.44
2018-02-12T02:59:06.082Z,1.44
2018-02-12T03:00:06.232Z,1.44
2018-02-12T03:01:05.708Z,1.44
2018-02-12T03:02:06.481Z,1.44
2018-02-12T03:03:05.994Z,1.44
2018-02-12T03:04:06.244Z,1.44
2018-02-12T03:05:05.930Z,1.44
2018-02-12T03:06:05.996Z,1.44
2018-02-12T03:07:05.675Z,1.38
2018-02-12T03:08:06.096Z,1.38
2018-02-12T03:09:06.405Z,1.38
2018-02-12T03:10:05.684Z,1.38
2018-02-12T03:11:05.609Z,1.38
2018-02-12T03:12:05.703Z,1.38
2018-02-12T03:13:06.163Z,1.38
2018-02-12T03:14:06.316Z,1.38
2018-02-12T03:15:05.839Z,1.38
2018-02-12T03:16:06.255Z,1.38
2018-02-12T03:17:05.746Z,1.31
2018-02-12T03:18:06.335Z,1.31
2018-02-12T03:19:06.269Z,1.31
2018-02-12T03:20:06.066Z,1.31
2018-02-12T03:21:06.320Z,1.31
2018-02-12T03:22:05.519Z,1.31
2018-02-12T03:23:06.160Z,1.31
2018-02-12T03:24:06.237Z,1.31
2018-02-12T03:25:06.483Z,1.31
2018-02-12T03:26:06.024Z,1.31
2018-02-12T03:27:06.087Z,1.31
2018-02-12T03:28:05.761Z,1.31
2018-02-12T03:29:05.520Z,1.31
2018-02-12T03:30:05.539Z,1.31
2018-02-12T03:31:06.076Z,1.31
2018-02-12T03:32:06.003Z,1.31
2018-02-12T03:33:05.827Z,1.31
2018-02-12T03:34:05.836Z,1.31
2018-02-12T03:35:06.342Z,1.31
2018-02-12T03:36:06.078Z,1.31
2018-02-12T03:37:05.753Z,1.31
2018-02-12T03:38:06.007Z,1.31
2018-02-12T03:39:05.933Z,1.31
2018-02-12T03:40:05.922Z,1.31
2018-02-12T03:41:06.384Z,1.31
2018-02-12T03:42:06.321Z,1.31
2018-02-12T03:43:05.852Z,1.31
2018-02-12T03:44:06.712Z,1.31
2018-02-12T03:45:06.081Z,1.25
2018-02-12T03:46:06.084Z,1.25
2018-02-12T03:47:05.976Z,1.25
2018-02-12T03:48:06.561Z,1.25
2018-02-12T03:49:06.407Z,1.25
2018-02-12T03:50:06.091Z,1.25
2018-02-12T03:51:06.102Z,1.19
2018-02-12T03:52:05.564Z,1.19
2018-02-12T03:53:06.095Z,1.19
2018-02-12T03:54:05.516Z,1.19
2018-02-12T03:55:06.088Z,1.19
2018-02-12T03:56:06.243Z,1.12
2018-02-12T03:57:05.693Z,1.12
2018-02-12T03:58:06.159Z,1.12
2018-02-12T03:59:05.620Z,1.06
2018-02-12T04:00:06.114Z,1.06
2018-02-12T04:01:06.640Z,1.06
2018-02-12T04:02:05.996Z,1.00
2018-02-12T04:03:06.351Z,1.00
2018-02-12T04:04:06.325Z,1.00
2018-02-12T04:05:06.123Z,0.94
2018-02-12T04:06:05.797Z,0.94
2018-02-12T04:07:05.683Z,0.94
2018-02-12T04:08:05.757Z,0.94
2018-02-12T04:09:05.842Z,0.94
2018-02-12T04:10:05.934Z,0.88
2018-02-12T04:11:06.014Z,0.88
2018-02-12T04:12:05.662Z,0.88
2018-02-12T04:13:06.486Z,0.81
2018-02-12T04:14:06.483Z,0.81
2018-02-12T04:15:06.047Z,0.81
2018-02-12T04:16:06.479Z,0.81
2018-02-12T04:17:06.406Z,0.81
2018-02-12T04:18:11.513Z,0.75
2018-02-12T04:19:05.692Z,0.75
2018-02-12T04:20:06.170Z,0.75
2018-02-12T04:21:10.833Z,0.69
2018-02-12T04:22:06.333Z,0.69
2018-02-12T04:23:06.473Z,0.69
2018-02-12T04:24:05.683Z,0.69
2018-02-12T04:25:05.758Z,0.62
2018-02-12T04:26:06.321Z,0.62
2018-02-12T04:27:06.791Z,0.62
2018-02-12T04:28:06.184Z,0.62
2018-02-12T04:29:05.774Z,0.62
2018-02-12T04:30:06.487Z,0.62
2018-02-12T04:31:05.993Z,0.56
2018-02-12T04:32:05.877Z,0.56
2018-02-12T04:33:11.106Z,0.56
2018-02-12T04:34:05.676Z,0.56
2018-02-12T04:35:05.931Z,0.50
2018-02-12T04:36:06.571Z,0.50
2018-02-12T04:37:06.545Z,0.50
2018-02-12T04:38:05.644Z,0.50
2018-02-12T04:39:05.755Z,0.44
2018-02-12T04:40:06.833Z,0.44
2018-02-12T04:41:05.518Z,0.44
2018-02-12T04:42:06.169Z,0.38
2018-02-12T04:43:05.705Z,0.38
2018-02-12T04:44:05.671Z,0.38
2018-02-12T04:45:05.910Z,0.31
2018-02-12T04:46:06.392Z,0.31
2018-02-12T04:47:06.096Z,0.31
2018-02-12T04:48:06.010Z,0.31
2018-02-12T04:49:06.078Z,0.31
2018-02-12T04:50:06.317Z,0.31
2018-02-12T04:51:06.022Z,0.31
2018-02-12T04:52:06.482Z,0.25
2018-02-12T04:53:07.100Z,0.25
2018-02-12T04:54:05.448Z,0.25
2018-02-12T04:55:05.751Z,0.25
2018-02-12T04:56:06.081Z,0.25
2018-02-12T04:57:05.559Z,0.19
2018-02-12T04:58:05.845Z,0.19
2018-02-12T04:59:05.596Z,0.19
2018-02-12T05:00:06.323Z,0.19
2018-02-12T05:01:05.933Z,0.19
2018-02-12T05:02:06.226Z,0.19
2018-02-12T05:03:06.456Z,0.19
2018-02-12T05:04:11.497Z,0.12
2018-02-12T05:05:05.777Z,0.12
2018-02-12T05:06:06.319Z,0.12
2018-02-12T05:07:06.325Z,0.12
2018-02-12T05:08:05.514Z,0.12
2018-02-12T05:09:06.281Z,0.19
2018-02-12T05:10:06.447Z,0.19
2018-02-12T05:11:05.770Z,0.19
2018-02-12T05:12:05.697Z,0.19
2018-02-12T05:13:06.086Z,0.19
2018-02-12T05:14:05.913Z,0.19
2018-02-12T05:15:06.240Z,0.19
2018-02-12T05:16:06.552Z,0.19
2018-02-12T05:17:06.400Z,0.25
2018-02-12T05:18:05.820Z,0.25
2018-02-12T05:19:05.706Z,0.25
2018-02-12T05:20:06.322Z,0.25
2018-02-12T05:21:06.321Z,0.31
2018-02-12T05:22:05.840Z,0.31
2018-02-12T05:23:06.005Z,0.31
2018-02-12T05:24:06.084Z,0.31
2018-02-12T05:25:06.874Z,0.31
2018-02-12T05:26:06.257Z,0.38
2018-02-12T05:27:06.329Z,0.38
2018-02-12T05:28:06.011Z,0.38
2018-02-12T05:29:05.846Z,0.38
2018-02-12T05:30:10.994Z,0.38
2018-02-12T05:31:05.838Z,0.38
2018-02-12T05:32:05.919Z,0.44
2018-02-12T05:33:06.478Z,0.44
2018-02-12T05:34:16.680Z,0.44
2018-02-12T05:35:06.326Z,0.44
2018-02-12T05:36:06.004Z,0.44
2018-02-12T05:37:06.321Z,0.50
2018-02-12T05:38:06.187Z,0.50
2018-02-12T05:39:06.889Z,0.50
2018-02-12T05:40:06.005Z,0.50
2018-02-12T05:41:05.600Z,0.50
2018-02-12T05:42:06.070Z,0.56
2018-02-12T05:43:05.969Z,0.56
2018-02-12T05:44:06.900Z,0.56
2018-02-12T05:45:05.665Z,0.56
2018-02-12T05:46:06.738Z,0.56
2018-02-12T05:47:05.676Z,0.62
2018-02-12T05:48:11.163Z,0.62
2018-02-12T05:49:05.921Z,0.62
2018-02-12T05:50:06.491Z,0.62
2018-02-12T05:51:06.518Z,0.62
2018-02-12T05:52:06.242Z,0.62
2018-02-12T05:53:06.409Z,0.62
2018-02-12T05:54:06.171Z,0.62
2018-02-12T05:55:06.079Z,0.62
2018-02-12T05:56:06.335Z,0.62
2018-02-12T05:57:05.964Z,0.62
2018-02-12T05:58:05.834Z,0.62
2018-02-12T05:59:05.921Z,0.62
2018-02-12T06:00:05.752Z,0.62
2018-02-12T06:01:05.690Z,0.62
2018-02-12T06:02:07.152Z,0.62
2018-02-12T06:03:10.791Z,0.62
2018-02-12T06:04:06.147Z,0.62
2018-02-12T06:05:06.075Z,0.62
2018-02-12T06:06:06.109Z,0.62
2018-02-12T06:07:06.316Z,0.62
2018-02-12T06:08:05.675Z,0.69
2018-02-12T06:09:05.519Z,0.69
2018-02-12T06:10:06.405Z,0.62
2018-02-12T06:11:05.837Z,0.62
2018-02-12T06:12:06.352Z,0.62
2018-02-12T06:13:06.101Z,0.62
2018-02-12T06:14:06.104Z,0.69
2018-02-12T06:15:06.190Z,0.69
2018-02-12T06:16:05.677Z,0.69
2018-02-12T06:17:05.917Z,0.69
2018-02-12T06:18:06.499Z,0.69
2018-02-12T06:19:06.163Z,0.69
2018-02-12T06:20:06.082Z,0.69
2018-02-12T06:21:05.933Z,0.69
2018-02-12T06:22:10.833Z,0.75
2018-02-12T06:23:06.246Z,0.75
2018-02-12T06:24:06.310Z,0.75
2018-02-12T06:25:06.235Z,0.75
2018-02-12T06:26:05.916Z,0.75
2018-02-12T06:27:06.362Z,0.75
2018-02-12T06:28:05.609Z,0.81
2018-02-12T06:29:06.240Z,0.81
2018-02-12T06:30:06.173Z,0.81
2018-02-12T06:31:05.670Z,0.81
2018-02-12T06:32:06.076Z,0.88
2018-02-12T06:33:06.409Z,0.88
2018-02-12T06:34:06.082Z,0.88
2018-02-12T06:35:06.325Z,0.88
2018-02-12T06:36:05.735Z,0.88
2018-02-12T06:37:06.576Z,0.88
2018-02-12T06:38:06.644Z,0.88
2018-02-12T06:39:05.838Z,0.88
2018-02-12T06:40:06.477Z,0.88
2018-02-12T06:41:06.325Z,0.88
2018-02-12T06:42:05.592Z,0.88
2018-02-12T06:43:06.021Z,0.88
2018-02-12T06:44:06.181Z,0.88
2018-02-12T06:45:05.619Z,0.88
2018-02-12T06:46:06.084Z,0.88
2018-02-12T06:47:06.390Z,0.88
2018-02-12T06:48:10.616Z,0.88
2018-02-12T06:49:05.920Z,0.88
2018-02-12T06:50:06.414Z,0.88
2018-02-12T06:51:05.998Z,0.88
2018-02-12T06:52:06.059Z,0.88
2018-02-12T06:53:05.677Z,0.88
2018-02-12T06:54:05.854Z,0.88
2018-02-12T06:55:05.686Z,0.88
2018-02-12T06:56:06.004Z,0.88
2018-02-12T06:57:05.772Z,0.88
2018-02-12T06:58:06.395Z,0.88
2018-02-12T06:59:06.306Z,0.88
2018-02-12T07:00:06.187Z,0.88
2018-02-12T07:01:05.986Z,0.88
2018-02-12T07:02:06.326Z,0.88
2018-02-12T07:03:06.403Z,0.88
2018-02-12T07:04:16.355Z,0.88
2018-02-12T07:05:05.999Z,0.88
2018-02-12T07:06:06.433Z,0.88
2018-02-12T07:07:06.486Z,0.88
2018-02-12T07:08:06.333Z,0.81
2018-02-12T07:09:06.472Z,0.88
2018-02-12T07:10:06.092Z,0.81
2018-02-12T07:11:06.081Z,0.81
2018-02-12T07:12:06.475Z,0.81
2018-02-12T07:13:05.522Z,0.81
2018-02-12T07:14:05.841Z,0.81
2018-02-12T07:15:06.501Z,0.81
2018-02-12T07:16:05.758Z,0.81
2018-02-12T07:17:05.918Z,0.75
2018-02-12T07:18:06.483Z,0.75
2018-02-12T07:19:05.828Z,0.75
2018-02-12T07:20:05.589Z,0.75
2018-02-12T07:21:05.675Z,0.75
2018-02-12T07:22:05.639Z,0.75
2018-02-12T07:23:05.618Z,0.75
2018-02-12T07:24:06.320Z,0.69
2018-02-12T07:25:06.501Z,0.75
2018-02-12T07:26:06.083Z,0.69
2018-02-12T07:27:05.679Z,0.69
2018-02-12T07:28:06.088Z,0.69
2018-02-12T07:29:05.620Z,0.81
2018-02-12T07:30:06.145Z,0.88
2018-02-12T07:31:05.538Z,0.81
2018-02-12T07:32:05.858Z,0.81
2018-02-12T07:33:05.764Z,0.75
2018-02-12T07:34:06.400Z,0.75
2018-02-12T07:35:06.072Z,0.75
2018-02-12T07:36:06.171Z,0.75
2018-02-12T07:37:05.784Z,0.75
2018-02-12T07:38:06.328Z,0.75
2018-02-12T07:39:06.239Z,0.81
2018-02-12T07:40:06.347Z,0.81
2018-02-12T07:41:05.827Z,0.88
2018-02-12T07:42:05.903Z,0.94
2018-02-12T07:43:06.084Z,1.00
2018-02-12T07:44:06.758Z,1.06
2018-02-12T07:45:05.769Z,1.12
2018-02-12T07:46:06.370Z,1.19
2018-02-12T07:47:05.615Z,1.25
2018-02-12T07:48:06.115Z,1.31
2018-02-12T07:49:05.521Z,1.38
2018-02-12T07:50:05.991Z,1.50
2018-02-12T07:51:05.619Z,1.56
2018-02-12T07:52:05.672Z,1.62
2018-02-12T07:53:06.476Z,1.69
2018-02-12T07:54:05.895Z,1.75
2018-02-12T07:55:05.995Z,1.81
2018-02-12T07:56:06.210Z,1.88
2018-02-12T07:57:05.596Z,1.94
2018-02-12T07:58:05.683Z,2.00
2018-02-12T07:59:06.135Z,2.06
2018-02-12T08:00:06.483Z,2.06
2018-02-12T08:01:05.958Z,2.12
2018-02-12T08:02:06.458Z,2.12
2018-02-12T08:03:06.021Z,2.19
2018-02-12T08:04:05.516Z,2.19
2018-02-12T08:05:06.000Z,2.19
2018-02-12T08:06:05.563Z,2.25
2018-02-12T08:07:05.604Z,2.25
2018-02-12T08:08:06.102Z,2.31
2018-02-12T08:09:05.855Z,2.31
2018-02-12T08:10:05.764Z,2.38
2018-02-12T08:11:06.592Z,2.38
2018-02-12T08:12:05.789Z,2.44
2018-02-12T08:13:06.934Z,2.44
2018-02-12T08:14:05.805Z,2.44
2018-02-12T08:15:06.077Z,2.44
2018-02-12T08:16:05.619Z,2.44
2018-02-12T08:17:06.344Z,2.44
2018-02-12T08:18:06.310Z,2.44
2018-02-12T08:19:07.124Z,2.50
2018-02-12T08:20:05.694Z,2.50
2018-02-12T08:21:06.318Z,2.50
2018-02-12T08:22:05.858Z,2.50
2018-02-12T08:23:06.195Z,2.50
2018-02-12T08:24:06.244Z,2.50
2018-02-12T08:25:06.242Z,2.56
2018-02-12T08:26:05.835Z,2.56
2018-02-12T08:27:05.765Z,2.56
2018-02-12T08:28:05.835Z,2.62
2018-02-12T08:29:05.820Z,2.62
2018-02-12T08:30:11.616Z,2.69
2018-02-12T08:31:06.898Z,2.69
2018-02-12T08:32:06.642Z,2.75
2018-02-12T08:33:10.921Z,2.75
2018-02-12T08:34:06.174Z,2.81
2018-02-12T08:35:06.631Z,2.88
2018-02-12T08:36:06.486Z,2.88
2018-02-12T08:37:06.227Z,2.94
2018-02-12T08:38:11.477Z,3.06
2018-02-12T08:39:05.941Z,3.06
2018-02-12T08:40:05.772Z,3.12
2018-02-12T08:41:06.789Z,3.31
2018-02-12T08:42:06.228Z,3.31
2018-02-12T08:43:05.677Z,3.31
2018-02-12T08:44:06.159Z,3.38
2018-02-12T08:45:05.764Z,3.38
2018-02-12T08:46:05.516Z,3.44
2018-02-12T08:47:05.924Z,3.44
2018-02-12T08:48:06.635Z,3.44
2018-02-12T08:49:10.741Z,3.50
2018-02-12T08:50:06.074Z,3.50
2018-02-12T08:51:05.840Z,3.50
2018-02-12T08:52:11.019Z,3.50
2018-02-12T08:53:06.413Z,3.50
2018-02-12T08:54:05.593Z,3.50
2018-02-12T08:55:06.172Z,3.56
2018-02-12T08:56:05.517Z,3.56
2018-02-12T08:57:05.919Z,3.56
2018-02-12T08:58:06.729Z,3.56
2018-02-12T08:59:06.330Z,3.62
2018-02-12T09:00:06.205Z,3.62
2018-02-12T09:01:05.750Z,3.62
2018-02-12T09:02:06.172Z,3.69
2018-02-12T09:03:05.685Z,3.75
2018-02-12T09:04:05.674Z,3.88
2018-02-12T09:05:07.537Z,3.88
2018-02-12T09:06:05.596Z,3.94
2018-02-12T09:07:05.682Z,3.94
2018-02-12T09:08:05.929Z,4.00
2018-02-12T09:09:05.662Z,4.00
2018-02-12T09:10:06.324Z,4.06
2018-02-12T09:11:06.077Z,4.12
2018-02-12T09:12:06.161Z,4.12
2018-02-12T09:13:05.858Z,4.31
2018-02-12T09:14:05.516Z,4.50
2018-02-12T09:15:06.008Z,4.50
2018-02-12T09:16:06.550Z,4.50
2018-02-12T09:17:05.795Z,4.50
2018-02-12T09:18:06.109Z,4.56
2018-02-12T09:19:05.686Z,4.56
2018-02-12T09:20:05.515Z,4.62
2018-02-12T09:21:06.172Z,4.69
2018-02-12T09:22:06.161Z,4.69
2018-02-12T09:23:06.407Z,4.81
2018-02-12T09:24:06.120Z,4.88
2018-02-12T09:25:06.428Z,4.94
2018-02-12T09:26:05.781Z,4.94
2018-02-12T09:27:06.244Z,4.94
2018-02-12T09:28:05.662Z,4.88
2018-02-12T09:29:06.316Z,4.88
2018-02-12T09:30:06.329Z,4.88
2018-02-12T09:31:11.165Z,4.81
2018-02-12T09:32:05.764Z,4.81
2018-02-12T09:33:06.290Z,4.75
2018-02-12T09:34:05.938Z,4.75
2018-02-12T09:35:06.572Z,4.75
2018-02-12T09:36:06.163Z,4.75
2018-02-12T09:37:05.441Z,4.75
2018-02-12T09:38:06.260Z,4.69
2018-02-12T09:39:05.694Z,4.69
2018-02-12T09:40:06.003Z,4.69
2018-02-12T09:41:05.916Z,4.69
2018-02-12T09:42:06.403Z,4.69
2018-02-12T09:43:07.194Z,4.75
2018-02-12T09:44:05.848Z,4.69
2018-02-12T09:45:06.336Z,4.69
2018-02-12T09:46:05.657Z,4.69
2018-02-12T09:47:06.880Z,4.69
2018-02-12T09:48:06.087Z,4.69
2018-02-12T09:49:05.601Z,4.69
2018-02-12T09:50:05.685Z,4.69
2018-02-12T09:51:06.410Z,4.69
2018-02-12T09:52:06.243Z,4.75
2018-02-12T09:53:05.848Z,4.75
2018-02-12T09:54:06.005Z,4.75
2018-02-12T09:55:06.155Z,4.75
2018-02-12T09:56:06.090Z,4.75
2018-02-12T09:57:05.619Z,4.81
2018-02-12T09:58:06.396Z,4.81
2018-02-12T09:59:11.189Z,4.81
2018-02-12T10:00:05.923Z,4.88
2018-02-12T10:01:05.931Z,4.88
2018-02-12T10:02:11.547Z,4.88
2018-02-12T10:03:06.167Z,4.88
2018-02-12T10:04:05.923Z,4.94
2018-02-12T10:05:05.783Z,4.94
2018-02-12T10:06:06.008Z,4.94
2018-02-12T10:07:05.608Z,4.88
2018-02-12T10:08:06.243Z,4.94
2018-02-12T10:09:11.264Z,4.88
2018-02-12T10:10:05.767Z,4.94
2018-02-12T10:11:06.566Z,4.88
2018-02-12T10:12:05.761Z,4.94
2018-02-12T10:13:05.996Z,4.88
2018-02-12T10:14:06.480Z,4.88
2018-02-12T10:15:06.006Z,4.88
2018-02-12T10:16:05.822Z,4.88
2018-02-12T10:17:06.343Z,4.88
2018-02-12T10:18:06.253Z,4.88
2018-02-12T10:19:06.567Z,4.81
2018-02-12T10:20:05.798Z,4.81
2018-02-12T10:21:06.252Z,4.81
2018-02-12T10:22:05.942Z,4.75
2018-02-12T10:23:05.930Z,4.75
2018-02-12T10:24:10.907Z,4.75
2018-02-12T10:25:05.529Z,4.75
2018-02-12T10:26:05.980Z,4.75
2018-02-12T10:27:05.781Z,4.75
2018-02-12T10:28:05.611Z,4.75
2018-02-12T10:29:06.223Z,4.75
2018-02-12T10:30:05.852Z,4.75
2018-02-12T10:31:06.646Z,4.75
2018-02-12T10:32:06.197Z,4.75
2018-02-12T10:33:05.847Z,4.75
2018-02-12T10:34:10.953Z,4.75
2018-02-12T10:35:06.495Z,4.75
2018-02-12T10:36:06.159Z,4.75
2018-02-12T10:37:05.688Z,4.69
2018-02-12T10:38:05.889Z,4.69
2018-02-12T10:39:06.295Z,4.69
2018-02-12T10:40:05.929Z,4.69
2018-02-12T10:41:10.736Z,4.69
2018-02-12T10:42:06.405Z,4.69
2018-02-12T10:43:06.085Z,4.69
2018-02-12T10:44:11.033Z,4.69
2018-02-12T10:45:05.620Z,4.69
2018-02-12T10:46:05.930Z,4.62
2018-02-12T10:47:11.334Z,4.62
2018-02-12T10:48:05.765Z,4.62
2018-02-12T10:49:05.659Z,4.62
2018-02-12T10:50:05.664Z,4.62
2018-02-12T10:51:05.697Z,4.62
2018-02-12T10:52:06.496Z,4.62
2018-02-12T10:53:06.098Z,4.62
2018-02-12T10:54:05.458Z,4.62
2018-02-12T10:55:06.328Z,4.62
2018-02-12T10:56:05.810Z,4.62
2018-02-12T10:57:05.933Z,4.56
2018-02-12T10:58:06.079Z,4.56
2018-02-12T10:59:10.648Z,4.56
2018-02-12T11:00:06.043Z,4.56
2018-02-12T11:01:05.966Z,4.56
2018-02-12T11:02:06.243Z,4.56
2018-02-12T11:03:05.710Z,4.56
2018-02-12T11:04:05.837Z,4.56
2018-02-12T11:05:06.096Z,4.56
2018-02-12T11:06:05.685Z,4.56
2018-02-12T11:07:11.127Z,4.56
2018-02-12T11:08:05.931Z,4.56
2018-02-12T11:09:05.588Z,4.56
2018-02-12T11:10:06.632Z,4.62
2018-02-12T11:11:05.528Z,4.56
2018-02-12T11:12:05.706Z,4.62
2018-02-12T11:13:06.258Z,4.62
2018-02-12T11:14:06.327Z,4.56
2018-02-12T11:15:05.767Z,4.56
2018-02-12T11:16:05.932Z,4.56
2018-02-12T11:17:07.205Z,4.62
2018-02-12T11:18:06.361Z,4.56
2018-02-12T11:19:06.345Z,4.56
2018-02-12T11:20:06.356Z,4.56
2018-02-12T11:21:06.158Z,4.56
2018-02-12T11:22:05.928Z,4.50
2018-02-12T11:23:11.241Z,4.50
2018-02-12T11:24:05.688Z,4.50
2018-02-12T11:25:06.251Z,4.50
2018-02-12T11:26:05.929Z,4.50
2018-02-12T11:27:06.159Z,4.44
2018-02-12T11:28:06.400Z,4.44
2018-02-12T11:29:05.730Z,4.44
2018-02-12T11:30:06.241Z,4.44
2018-02-12T11:31:06.163Z,4.44
2018-02-12T11:32:06.321Z,4.44
2018-02-12T11:33:05.794Z,4.44
2018-02-12T11:34:06.510Z,4.44
2018-02-12T11:35:06.322Z,4.44
2018-02-12T11:36:06.725Z,4.38
2018-02-12T11:37:05.791Z,4.38
2018-02-12T11:38:06.330Z,4.38
2018-02-12T11:39:05.855Z,4.38
2018-02-12T11:40:05.670Z,4.38
2018-02-12T11:41:11.163Z,4.38
2018-02-12T11:42:05.699Z,4.38
2018-02-12T11:43:05.769Z,4.38
2018-02-12T11:44:11.488Z,4.38
2018-02-12T11:45:05.866Z,4.38
2018-02-12T11:46:06.017Z,4.38
2018-02-12T11:47:05.665Z,4.38
2018-02-12T11:48:06.031Z,4.31
2018-02-12T11:49:06.318Z,4.31
2018-02-12T11:50:05.685Z,4.31
2018-02-12T11:51:06.007Z,4.31
2018-02-12T11:52:06.488Z,4.31
2018-02-12T11:53:05.533Z,4.31
2018-02-12T11:54:05.713Z,4.38
2018-02-12T11:55:06.171Z,4.31
2018-02-12T11:56:06.737Z,4.38
2018-02-12T11:57:06.007Z,4.38
2018-02-12T11:58:05.446Z,4.38
2018-02-12T11:59:06.316Z,4.38
2018-02-12T12:00:05.516Z,4.38
2018-02-12T12:01:06.301Z,4.38
2018-02-12T12:02:06.001Z,4.38
2018-02-12T12:03:06.387Z,4.38
2018-02-12T12:04:05.996Z,4.38
2018-02-12T12:05:06.249Z,4.44
2018-02-12T12:06:05.662Z,4.44
2018-02-12T12:07:06.321Z,4.44
2018-02-12T12:08:06.563Z,4.44
2018-02-12T12:09:06.135Z,4.44
2018-02-12T12:10:11.523Z,4.44
2018-02-12T12:11:05.776Z,4.44
2018-02-12T12:12:06.185Z,4.44
2018-02-12T12:13:06.074Z,4.44
2018-02-12T12:14:06.412Z,4.44
2018-02-12T12:15:06.478Z,4.44
2018-02-12T12:16:06.407Z,4.44
2018-02-12T12:17:05.892Z,4.44
2018-02-12T12:18:05.518Z,4.44
2018-02-12T12:19:05.679Z,4.44
2018-02-12T12:20:05.919Z,4.44
2018-02-12T12:21:05.927Z,4.44
2018-02-12T12:22:06.246Z,4.44
2018-02-12T12:23:05.917Z,4.44
2018-02-12T12:24:06.220Z,4.44
2018-02-12T12:25:06.088Z,4.44
2018-02-12T12:26:05.539Z,4.44
2018-02-12T12:27:05.598Z,4.44
2018-02-12T12:28:05.517Z,4.44
2018-02-12T12:29:05.925Z,4.44
2018-02-12T12:30:12.458Z,4.44
2018-02-12T12:31:06.080Z,4.38
2018-02-12T12:32:06.460Z,4.38
2018-02-12T12:33:06.486Z,4.38
2018-02-12T12:34:06.567Z,4.44
2018-02-12T12:35:06.083Z,4.44
2018-02-12T12:36:06.249Z,4.44
2018-02-12T12:37:06.325Z,4.44
2018-02-12T12:38:06.164Z,4.50
2018-02-12T12:39:05.865Z,4.50
2018-02-12T12:40:05.839Z,4.50
2018-02-12T12:41:10.589Z,4.56
2018-02-12T12:42:05.926Z,4.56
2018-02-12T12:43:05.924Z,4.56
2018-02-12T12:44:10.956Z,4.56
2018-02-12T12:45:05.650Z,4.62
2018-02-12T12:46:06.054Z,4.62
2018-02-12T12:47:05.674Z,4.62
2018-02-12T12:48:06.243Z,4.62
2018-02-12T12:49:06.441Z,4.62
2018-02-12T12:50:06.257Z,4.62
2018-02-12T12:51:06.184Z,4.62
2018-02-12T12:52:06.271Z,4.69
2018-02-12T12:53:05.529Z,4.69
2018-02-12T12:54:11.012Z,4.69
2018-02-12T12:55:05.622Z,4.69
2018-02-12T12:56:05.758Z,4.69
2018-02-12T12:57:06.242Z,4.69
2018-02-12T12:58:06.561Z,4.69
2018-02-12T12:59:06.077Z,4.69
2018-02-12T13:00:06.469Z,4.69
2018-02-12T13:01:06.630Z,4.69
2018-02-12T13:02:06.738Z,4.69
2018-02-12T13:03:06.081Z,4.69
2018-02-12T13:04:05.617Z,4.62
2018-02-12T13:05:06.257Z,4.69
2018-02-12T13:06:05.793Z,4.62
2018-02-12T13:07:05.520Z,4.62
2018-02-12T13:08:06.645Z,4.62
2018-02-12T13:09:05.685Z,4.62
2018-02-12T13:10:05.831Z,4.62
2018-02-12T13:11:05.841Z,4.62
2018-02-12T13:12:06.165Z,4.56
2018-02-12T13:13:06.401Z,4.56
2018-02-12T13:14:06.244Z,4.56
2018-02-12T13:15:06.428Z,4.56
2018-02-12T13:16:06.562Z,4.56
2018-02-12T13:17:05.766Z,4.50
2018-02-12T13:18:06.726Z,4.50